首页
METAR-TAF:

METAR-TAF

机场 :

策尔特韦格, 奥地利

纬度: 47-12N, 经度: 014-45E, 海拔: 677米

当前天气观测

该预报发布于21分钟前的05:50 UTC
风速2节,风向西转西南
温度 -1°C
湿度 86%
气压 1023 hPa

METAR: LOXZ 230550Z 25002KT 30KM FEW080SC SCT100AC BKN280CI M01/M03 Q1023

时间: 07:11 (06:11 UTC)

预报

该预报发布于18小时和56分钟前的11:15 UTC
预报有效从22日的 12点(UTC)到 22日的 21点(UTC)
风速3节,风向多变
能见度10公里或以上
多云层高于28000英尺

TAF: LOXZ 221115Z 2212/2221 VRB03KT 9999 BKN280

超过4000个机场的气象观测和天气预报(METAR&TAF报告)。

可查询的气象台以黄色和红色小点在地图上表示。

将鼠标移到小点上方,可查看气象台名称。

然后点击查看天气观测和预报。

如需切换地图:点击带黑十字的绿色按钮放大地图;点击带横线的绿色按钮缩小地图;或者点击绿色箭头查看邻近地区的地图。


METAR-TAF: